Time;durP1;ratioP1;P1;durP2;ratioP2;P2;SDS_P1;SDS_P2;PMS_P1;PMS_P2;Temp;Humidity;BMP_temperature;BMP_pressure;BME280_temperature;BME280_humidity;BME280_pressure;Samples;Min_cycle;Max_cycle;Signal;HPM_P1;HPM_P2
2024/04/22 00:00:20;;;;;;;16.92;2.47;;;6.80;99.90;;;;;;5377451;26;20012;-70
2024/04/22 00:02:47;;;;;;;11.52;2.10;;;6.80;99.90;;;;;;5395141;26;20000;-70
2024/04/22 00:05:14;;;;;;;16.52;2.38;;;6.80;99.90;;;;;;5388162;26;20068;-70
2024/04/22 00:07:41;;;;;;;11.05;2.38;;;6.80;99.90;;;;;;5396562;26;20462;-70
2024/04/22 00:10:08;;;;;;;23.25;2.40;;;6.80;99.90;;;;;;5390312;26;20470;-69
2024/04/22 00:12:36;;;;;;;15.00;2.55;;;6.80;99.90;;;;;;5384374;26;20003;-70
2024/04/22 00:15:03;;;;;;;13.73;1.95;;;6.80;99.90;;;;;;5384854;26;20015;-69
2024/04/22 00:17:30;;;;;;;25.33;5.53;;;6.80;99.90;;;;;;5391823;26;19996;-69
2024/04/22 00:20:00;;;;;;;14.20;2.13;;;6.80;99.90;;;;;;5377462;26;20011;-69
2024/04/22 00:22:27;;;;;;;9.80;2.15;;;6.80;99.90;;;;;;5384451;26;19999;-69
2024/04/22 00:24:54;;;;;;;14.85;2.00;;;6.80;99.90;;;;;;5378154;26;20040;-70
2024/04/22 00:27:20;;;;;;;10.88;2.13;;;6.90;99.90;;;;;;5386575;26;20074;-69
2024/04/22 00:29:47;;;;;;;19.13;4.50;;;6.90;99.90;;;;;;5376378;26;20054;-68
2024/04/22 00:32:14;;;;;;;13.20;2.47;;;6.90;99.90;;;;;;5389489;26;20004;-69
2024/04/22 00:34:41;;;;;;;13.77;2.53;;;6.90;99.90;;;;;;5394772;26;20027;-69
2024/04/22 00:37:08;;;;;;;13.93;2.38;;;6.90;99.90;;;;;;5387400;26;19996;-69
2024/04/22 00:39:35;;;;;;;9.68;1.75;;;6.90;99.90;;;;;;5385935;26;20101;-71
2024/04/22 00:42:02;;;;;;;8.35;1.85;;;7.00;99.90;;;;;;5394296;26;20007;-68
2024/04/22 00:44:29;;;;;;;26.98;4.95;;;7.00;99.90;;;;;;5380691;26;20471;-68
2024/04/22 00:46:56;;;;;;;17.15;2.40;;;7.00;99.90;;;;;;5388250;26;20051;-68
2024/04/22 00:49:23;;;;;;;10.23;2.13;;;7.00;99.90;;;;;;5393427;26;20406;-69
2024/04/22 00:51:50;;;;;;;5.75;1.45;;;7.00;99.90;;;;;;5385822;26;19995;-67
2024/04/22 00:54:17;;;;;;;12.07;2.53;;;7.00;99.90;;;;;;5401354;26;20074;-68
2024/04/22 00:56:44;;;;;;;15.75;2.60;;;6.90;99.90;;;;;;5382483;26;20000;-69
2024/04/22 00:59:11;;;;;;;16.88;2.17;;;6.90;99.90;;;;;;5338823;26;20062;-68
2024/04/22 01:01:38;;;;;;;10.80;2.25;;;7.00;99.90;;;;;;5391924;26;20077;-69
2024/04/22 01:04:05;;;;;;;18.90;4.63;;;7.00;99.90;;;;;;5403796;26;20019;-68
2024/04/22 01:06:32;;;;;;;16.27;2.50;;;6.90;99.90;;;;;;5390818;26;20000;-69
2024/04/22 01:08:59;;;;;;;13.02;2.45;;;6.90;99.90;;;;;;5391566;26;20050;-69
2024/04/22 01:11:26;;;;;;;16.48;3.50;;;6.90;99.90;;;;;;5385189;26;20011;-69
2024/04/22 01:13:54;;;;;;;11.80;2.25;;;6.90;99.90;;;;;;5382690;26;20015;-69
2024/04/22 01:16:21;;;;;;;13.30;3.17;;;6.90;99.90;;;;;;5401276;26;20003;-69
2024/04/22 01:18:48;;;;;;;11.98;2.25;;;6.90;99.90;;;;;;5392405;26;20053;-67
2024/04/22 01:21:14;;;;;;;18.90;2.20;;;6.90;99.90;;;;;;5378486;26;20004;-68
2024/04/22 01:23:41;;;;;;;20.45;2.50;;;7.00;99.90;;;;;;5384563;26;20001;-69
2024/04/22 01:26:08;;;;;;;19.70;2.85;;;7.00;99.90;;;;;;5381909;26;20059;-68
2024/04/22 01:28:35;;;;;;;12.50;1.80;;;6.90;99.90;;;;;;5362084;26;20008;-68
2024/04/22 01:31:02;;;;;;;14.50;2.38;;;6.90;99.90;;;;;;5372413;26;20004;-69
2024/04/22 01:33:29;;;;;;;9.07;1.67;;;6.90;99.90;;;;;;5384276;26;20004;-68
2024/04/22 01:35:56;;;;;;;12.30;1.85;;;6.90;99.90;;;;;;5397846;26;20090;-68
2024/04/22 01:38:23;;;;;;;15.48;2.58;;;6.90;99.90;;;;;;5389803;26;20011;-68
2024/04/22 01:40:50;;;;;;;20.13;2.40;;;6.90;99.90;;;;;;5396460;26;20035;-69
2024/04/22 01:43:17;;;;;;;12.00;2.20;;;6.80;99.90;;;;;;5384909;26;20016;-68
2024/04/22 01:45:44;;;;;;;22.13;2.78;;;6.80;99.90;;;;;;5389259;26;20016;-69
2024/04/22 01:48:11;;;;;;;9.18;2.25;;;6.70;99.90;;;;;;5392610;26;20019;-68
2024/04/22 01:50:38;;;;;;;9.57;1.70;;;6.70;99.90;;;;;;5399402;26;20014;-68
2024/04/22 01:53:05;;;;;;;11.15;2.08;;;6.70;99.90;;;;;;5400428;26;20032;-70
2024/04/22 01:55:31;;;;;;;16.38;2.47;;;6.70;99.90;;;;;;5401950;26;20003;-69
2024/04/22 01:57:58;;;;;;;18.50;2.20;;;6.70;99.90;;;;;;5394546;26;20007;-69
2024/04/22 02:00:25;;;;;;;9.18;2.28;;;6.60;99.90;;;;;;5377563;26;20004;-69
2024/04/22 02:02:52;;;;;;;11.95;2.20;;;6.50;99.90;;;;;;5377932;26;20023;-70
2024/04/22 02:05:19;;;;;;;10.52;1.75;;;6.50;99.90;;;;;;5390295;26;20007;-69
2024/04/22 02:07:46;;;;;;;11.45;1.95;;;6.40;99.90;;;;;;5390474;26;20003;-69
2024/04/22 02:10:13;;;;;;;16.70;2.08;;;6.40;99.90;;;;;;5396931;26;20465;-68
2024/04/22 02:12:50;;;;;;;9.02;2.88;;;6.30;99.90;;;;;;5374751;26;20335;-69
2024/04/22 02:15:17;;;;;;;18.67;2.83;;;6.40;99.90;;;;;;5381626;26;20018;-68
2024/04/22 02:17:44;;;;;;;14.30;3.00;;;6.30;99.90;;;;;;5392326;26;20015;-68
2024/04/22 02:20:12;;;;;;;6.47;1.83;;;6.20;99.90;;;;;;5387525;26;20015;-69
2024/04/22 02:22:39;;;;;;;9.57;1.73;;;6.20;99.90;;;;;;5401271;26;20469;-69
2024/04/22 02:25:06;;;;;;;18.58;4.28;;;6.20;99.90;;;;;;5401110;26;20010;-68
2024/04/22 02:27:33;;;;;;;17.80;3.65;;;6.10;99.90;;;;;;5388400;26;20019;-69
2024/04/22 02:30:00;;;;;;;10.30;3.05;;;6.20;99.90;;;;;;5397306;26;20555;-68
2024/04/22 02:32:27;;;;;;;17.40;2.88;;;6.20;99.90;;;;;;5390459;26;19995;-69
2024/04/22 02:34:54;;;;;;;12.75;1.80;;;6.30;99.90;;;;;;5375659;26;20004;-68
2024/04/22 02:37:21;;;;;;;10.93;1.70;;;6.30;99.90;;;;;;5406549;26;20004;-68
2024/04/22 02:39:48;;;;;;;8.43;1.73;;;6.20;99.90;;;;;;5384389;26;20019;-68
2024/04/22 02:42:15;;;;;;;7.50;1.35;;;6.10;99.90;;;;;;5403313;26;20072;-69
2024/04/22 02:44:42;;;;;;;7.03;1.45;;;6.00;99.90;;;;;;5394772;26;20465;-68
2024/04/22 02:47:09;;;;;;;10.82;1.67;;;6.00;99.90;;;;;;5394957;26;19999;-68
2024/04/22 02:49:36;;;;;;;16.98;2.90;;;6.00;99.90;;;;;;5385226;26;20003;-69
2024/04/22 02:52:03;;;;;;;7.88;2.28;;;5.90;99.90;;;;;;5389404;26;20462;-69
2024/04/22 02:54:31;;;;;;;6.82;1.90;;;5.90;99.90;;;;;;5394356;26;20013;-68
2024/04/22 02:56:58;;;;;;;10.27;2.13;;;5.90;99.90;;;;;;5386893;26;20015;-68
2024/04/22 02:59:25;;;;;;;15.00;2.25;;;5.90;99.90;;;;;;5397929;26;19996;-70
2024/04/22 03:01:52;;;;;;;16.27;2.35;;;5.70;99.90;;;;;;5387921;26;19999;-69
2024/04/22 03:04:19;;;;;;;9.88;1.88;;;5.80;99.90;;;;;;5376643;26;20483;-69
2024/04/22 03:06:47;;;;;;;12.23;2.20;;;5.60;99.90;;;;;;5391379;26;19999;-68
2024/04/22 03:09:14;;;;;;;13.18;2.75;;;5.60;99.90;;;;;;5386982;26;20336;-69
2024/04/22 03:11:41;;;;;;;8.02;1.67;;;5.60;99.90;;;;;;5358915;26;20010;-69
2024/04/22 03:14:08;;;;;;;8.10;1.58;;;5.60;99.90;;;;;;5388647;26;19997;-70
2024/04/22 03:16:35;;;;;;;15.75;2.33;;;5.70;99.90;;;;;;5382735;26;20011;-69
2024/04/22 03:19:02;;;;;;;9.50;1.90;;;5.50;99.90;;;;;;5399666;26;20019;-70
2024/04/22 03:21:29;;;;;;;12.40;2.45;;;5.90;99.90;;;;;;5397334;26;20003;-69
2024/04/22 03:23:56;;;;;;;6.30;2.10;;;5.50;99.90;;;;;;5378640;26;20012;-69
2024/04/22 03:26:23;;;;;;;6.20;1.40;;;5.60;99.90;;;;;;5392381;26;20012;-70
2024/04/22 03:28:50;;;;;;;6.35;2.00;;;5.40;99.90;;;;;;5402064;26;20073;-70
2024/04/22 03:31:16;;;;;;;9.32;1.90;;;5.40;99.90;;;;;;5397861;26;20073;-70
2024/04/22 03:33:43;;;;;;;15.55;1.92;;;5.30;99.90;;;;;;5389203;26;20068;-70
2024/04/22 03:36:10;;;;;;;7.60;1.55;;;5.30;99.90;;;;;;5384037;26;20000;-70
2024/04/22 03:38:37;;;;;;;14.88;2.13;;;5.30;99.90;;;;;;5396827;26;20007;-70
2024/04/22 03:41:04;;;;;;;8.77;1.90;;;5.20;99.90;;;;;;5393544;26;20016;-68
2024/04/22 03:43:31;;;;;;;9.82;1.83;;;5.20;99.90;;;;;;5379293;26;20074;-69
2024/04/22 03:51:29;;;;;;;12.52;1.55;;;5.00;99.90;;;;;;5391578;26;20011;-70
2024/04/22 03:53:56;;;;;;;6.57;1.23;;;4.90;99.90;;;;;;5390372;26;20087;-69
2024/04/22 03:56:23;;;;;;;12.30;1.60;;;4.80;99.90;;;;;;5378556;26;20058;-69
2024/04/22 03:58:50;;;;;;;5.28;1.55;;;4.90;99.90;;;;;;5366252;26;19999;-69
2024/04/22 04:01:17;;;;;;;7.93;2.45;;;4.90;99.90;;;;;;5375985;26;20008;-69
2024/04/22 04:03:44;;;;;;;15.75;3.17;;;4.90;99.90;;;;;;5387694;26;20018;-70
2024/04/22 04:06:11;;;;;;;13.30;3.30;;;4.80;99.90;;;;;;5390708;26;20044;-69
2024/04/22 04:08:38;;;;;;;10.32;2.58;;;4.80;99.90;;;;;;5381817;26;20011;-70
2024/04/22 04:11:11;;;;;;;7.97;1.60;;;4.70;99.90;;;;;;5380392;26;20000;-69
2024/04/22 04:13:39;;;;;;;15.68;2.30;;;4.70;99.90;;;;;;5390719;26;20015;-69
2024/04/22 04:16:09;;;;;;;14.15;2.03;;;4.70;99.90;;;;;;5393845;26;20076;-69
2024/04/22 04:18:39;;;;;;;7.32;1.63;;;4.80;99.90;;;;;;5382004;26;20478;-70
2024/04/22 04:21:06;;;;;;;12.70;1.80;;;4.70;99.90;;;;;;5374695;26;20077;-70
2024/04/22 04:23:33;;;;;;;8.70;2.03;;;4.60;99.90;;;;;;5382799;26;20015;-69
2024/04/22 04:26:01;;;;;;;14.52;3.03;;;4.60;99.90;;;;;;5406893;26;20085;-69
2024/04/22 04:28:28;;;;;;;12.18;2.33;;;4.60;99.90;;;;;;5383564;26;20016;-69
2024/04/22 04:30:59;;;;;;;7.63;1.45;;;4.50;99.90;;;;;;5392013;26;19999;-70
2024/04/22 04:33:26;;;;;;;9.07;1.83;;;4.40;99.90;;;;;;5390060;26;20032;-69
2024/04/22 04:36:00;;;;;;;10.50;2.30;;;4.40;99.90;;;;;;5390884;26;20081;-69
2024/04/22 04:38:27;;;;;;;11.88;2.22;;;4.40;99.90;;;;;;5395132;26;20027;-69
2024/04/22 04:40:54;;;;;;;9.77;1.88;;;4.30;99.90;;;;;;5398541;26;20068;-69
2024/04/22 04:43:24;;;;;;;12.75;1.83;;;4.30;99.90;;;;;;5388708;26;20050;-69
2024/04/22 04:45:52;;;;;;;8.75;2.00;;;4.20;99.90;;;;;;5393056;26;20348;-69
2024/04/22 04:48:19;;;;;;;10.32;2.10;;;4.20;99.90;;;;;;5405739;26;20019;-68
2024/04/22 04:50:47;;;;;;;17.77;2.50;;;4.20;99.90;;;;;;5395929;26;20012;-70
2024/04/22 04:53:14;;;;;;;17.52;2.38;;;4.10;99.90;;;;;;5398044;26;20608;-70
2024/04/22 04:55:41;;;;;;;12.60;2.65;;;4.10;99.90;;;;;;5391006;26;20347;-70
2024/04/22 04:58:09;;;;;;;6.97;2.00;;;4.00;99.90;;;;;;5406345;26;20007;-70
2024/04/22 05:00:36;;;;;;;6.75;1.90;;;4.20;99.90;;;;;;5397748;26;20008;-69
2024/04/22 05:03:03;;;;;;;10.90;2.83;;;4.10;99.90;;;;;;5388346;26;19999;-70
2024/04/22 05:05:30;;;;;;;17.30;2.28;;;4.10;99.90;;;;;;5389221;26;20016;-69
2024/04/22 05:07:57;;;;;;;9.07;2.58;;;4.00;99.90;;;;;;5382807;26;20012;-71
2024/04/22 05:10:24;;;;;;;16.25;2.88;;;4.00;99.90;;;;;;5386999;26;20000;-70
2024/04/22 05:12:51;;;;;;;11.40;2.10;;;4.00;99.90;;;;;;5399276;26;20003;-71
2024/04/22 05:15:21;;;;;;;9.27;2.53;;;4.10;99.90;;;;;;5380687;26;20008;-70
2024/04/22 05:17:48;;;;;;;9.20;2.33;;;4.10;99.90;;;;;;5409716;26;20084;-70
2024/04/22 05:20:15;;;;;;;13.95;2.50;;;4.20;99.90;;;;;;5382011;26;20005;-69
2024/04/22 05:22:42;;;;;;;14.05;2.15;;;4.20;99.90;;;;;;5390950;26;20000;-70
2024/04/22 05:25:09;;;;;;;8.70;2.00;;;4.20;99.90;;;;;;5401927;26;20464;-70
2024/04/22 05:27:36;;;;;;;6.82;1.83;;;4.10;99.90;;;;;;5391855;26;20003;-69
2024/04/22 05:30:04;;;;;;;7.95;2.25;;;4.10;99.90;;;;;;5389412;26;20026;-69
2024/04/22 05:32:32;;;;;;;14.48;3.20;;;4.10;99.90;;;;;;5398910;26;20000;-70
2024/04/22 05:37:45;;;;;;;17.73;4.13;;;4.30;99.90;;;;;;5378051;26;20000;-70
2024/04/22 05:40:12;;;;;;;21.73;3.80;;;4.40;99.90;;;;;;5398252;26;20026;-70
2024/04/22 05:42:39;;;;;;;11.30;4.70;;;4.60;99.90;;;;;;5399447;26;20222;-70
2024/04/22 05:45:06;;;;;;;10.25;2.40;;;4.60;99.90;;;;;;5390700;26;20463;-69
2024/04/22 05:47:33;;;;;;;16.00;2.70;;;4.60;99.90;;;;;;5395273;26;20748;-69
2024/04/22 05:50:02;;;;;;;12.52;2.88;;;4.60;99.90;;;;;;5400991;26;20460;-69
2024/04/22 05:52:29;;;;;;;16.13;2.28;;;4.60;99.90;;;;;;5381846;26;20060;-70
2024/04/22 05:54:56;;;;;;;12.93;4.65;;;4.70;99.90;;;;;;5393476;26;20466;-69
2024/04/22 05:57:23;;;;;;;20.45;2.97;;;4.80;99.90;;;;;;5389161;26;20000;-69
2024/04/22 05:59:50;;;;;;;8.88;2.72;;;4.70;99.90;;;;;;5390518;26;20004;-69
2024/04/22 06:02:16;;;;;;;7.72;2.70;;;4.80;99.90;;;;;;5388544;26;20327;-69
2024/04/22 06:04:43;;;;;;;11.07;2.88;;;4.90;99.90;;;;;;5400158;26;20012;-69
2024/04/22 06:07:10;;;;;;;16.55;4.35;;;5.00;99.90;;;;;;5381512;26;20467;-70
2024/04/22 06:09:37;;;;;;;10.98;2.65;;;5.00;99.90;;;;;;5403847;26;20607;-69
2024/04/22 06:12:04;;;;;;;21.17;2.92;;;5.10;99.90;;;;;;5399588;26;20074;-69
2024/04/22 06:14:44;;;;;;;15.90;2.75;;;5.30;99.90;;;;;;5393935;26;19999;-70
2024/04/22 06:17:11;;;;;;;17.65;5.63;;;5.40;99.90;;;;;;5394855;26;20001;-69
2024/04/22 06:19:39;;;;;;;8.30;3.17;;;5.50;99.90;;;;;;5396222;26;20009;-68
2024/04/22 06:22:06;;;;;;;10.40;2.58;;;5.60;99.90;;;;;;5363017;26;20008;-69
2024/04/22 06:24:33;;;;;;;17.00;3.13;;;5.70;99.90;;;;;;5396984;26;20077;-70
2024/04/22 06:27:00;;;;;;;9.77;2.40;;;5.70;99.90;;;;;;5398251;26;20076;-70
2024/04/22 06:29:27;;;;;;;10.43;2.35;;;5.80;99.90;;;;;;5384091;26;20081;-69
2024/04/22 06:31:54;;;;;;;15.82;3.38;;;5.80;99.90;;;;;;5400933;26;19999;-71
2024/04/22 06:34:21;;;;;;;18.70;2.47;;;5.90;99.90;;;;;;5385348;26;20044;-70
2024/04/22 06:36:48;;;;;;;15.18;3.15;;;5.90;99.90;;;;;;5393075;26;20035;-71
2024/04/22 06:39:16;;;;;;;12.38;3.35;;;6.00;99.90;;;;;;5382095;26;20506;-71
2024/04/22 06:41:43;;;;;;;13.63;2.75;;;6.10;99.90;;;;;;5398291;26;20029;-72
2024/04/22 06:44:10;;;;;;;18.20;3.05;;;6.10;99.90;;;;;;5386478;26;20073;-72
2024/04/22 06:46:37;;;;;;;9.35;2.50;;;6.20;99.90;;;;;;5385734;26;20482;-71
2024/04/22 06:49:05;;;;;;;14.25;2.80;;;6.30;99.90;;;;;;5386692;26;20477;-71
2024/04/22 06:51:32;;;;;;;13.13;3.00;;;6.40;99.90;;;;;;5404096;26;20022;-70
2024/04/22 06:53:59;;;;;;;18.42;3.13;;;6.50;99.90;;;;;;5392345;26;20007;-70
2024/04/22 06:56:26;;;;;;;13.65;5.00;;;6.60;99.90;;;;;;5402866;26;20000;-70
2024/04/22 06:58:54;;;;;;;16.50;4.43;;;6.70;99.90;;;;;;5393178;26;20020;-70
2024/04/22 07:01:21;;;;;;;18.15;2.92;;;6.80;99.90;;;;;;5387489;26;20014;-71
2024/04/22 07:04:03;;;;;;;25.38;4.65;;;7.00;99.90;;;;;;5395826;26;20003;-71
2024/04/22 07:06:31;;;;;;;13.43;2.65;;;7.10;99.90;;;;;;5382003;26;20007;-70
2024/04/22 07:08:58;;;;;;;16.17;3.38;;;7.10;99.90;;;;;;5391161;26;20036;-70
2024/04/22 07:11:25;;;;;;;18.83;2.63;;;7.20;99.90;;;;;;5398844;26;19996;-70
2024/04/22 07:13:52;;;;;;;12.05;2.63;;;7.20;99.90;;;;;;5391809;26;20089;-71
2024/04/22 07:16:20;;;;;;;19.13;3.40;;;7.30;99.90;;;;;;5368483;26;20041;-71
2024/04/22 07:18:47;;;;;;;15.95;3.95;;;7.30;99.90;;;;;;5387822;26;20004;-70
2024/04/22 07:21:18;;;;;;;13.45;2.38;;;7.40;99.90;;;;;;5388052;26;20014;-70
2024/04/22 07:23:45;;;;;;;14.90;2.63;;;7.50;99.90;;;;;;5387983;26;20003;-71
2024/04/22 07:26:12;;;;;;;17.50;3.38;;;7.60;99.90;;;;;;5385410;26;20015;-70
2024/04/22 07:28:39;;;;;;;10.65;3.17;;;7.70;99.90;;;;;;5396396;26;20010;-71
2024/04/22 07:31:07;;;;;;;20.75;4.80;;;7.80;99.90;;;;;;5382910;26;20001;-71
2024/04/22 07:33:34;;;;;;;17.92;4.00;;;8.00;99.90;;;;;;5399046;26;20029;-69
2024/04/22 07:36:18;;;;;;;11.10;2.38;;;8.10;99.90;;;;;;5396481;26;20004;-70
2024/04/22 07:38:45;;;;;;;12.98;3.08;;;8.10;99.90;;;;;;5348864;26;20029;-70
2024/04/22 07:41:12;;;;;;;13.57;2.92;;;8.10;99.90;;;;;;5381939;26;20078;-70
2024/04/22 07:43:39;;;;;;;15.68;2.80;;;8.20;99.90;;;;;;5399293;26;20011;-69
2024/04/22 07:46:06;;;;;;;11.25;2.65;;;8.30;99.90;;;;;;5395503;26;20003;-70
2024/04/22 07:48:33;;;;;;;21.05;3.72;;;8.40;99.90;;;;;;5399166;26;20015;-71
2024/04/22 07:51:04;;;;;;;14.90;2.90;;;8.40;99.90;;;;;;5386508;26;20424;-70
2024/04/22 07:53:31;;;;;;;12.57;2.40;;;8.40;99.90;;;;;;5377671;26;20473;-70
2024/04/22 07:55:58;;;;;;;5.75;1.80;;;8.40;99.90;;;;;;5396877;26;20443;-70
2024/04/22 07:58:25;;;;;;;24.27;5.38;;;8.50;99.90;;;;;;5393072;26;20149;-70
2024/04/22 08:00:54;;;;;;;22.45;2.58;;;8.50;99.90;;;;;;5380661;26;20000;-71
2024/04/22 08:03:21;;;;;;;22.17;3.55;;;8.60;99.90;;;;;;5403647;26;20018;-71
2024/04/22 08:05:48;;;;;;;12.00;2.33;;;8.60;99.90;;;;;;5392464;26;20008;-70
2024/04/22 08:08:15;;;;;;;10.00;2.20;;;8.70;99.90;;;;;;5401825;26;20077;-70
2024/04/22 08:10:42;;;;;;;16.95;2.70;;;8.80;99.90;;;;;;5398716;26;20321;-71
2024/04/22 08:13:09;;;;;;;20.92;2.83;;;8.90;99.90;;;;;;5387360;26;20674;-70
2024/04/22 08:15:36;;;;;;;14.15;2.40;;;8.90;99.90;;;;;;5386227;26;20072;-70
2024/04/22 08:18:03;;;;;;;8.60;1.83;;;8.90;99.90;;;;;;5402204;26;20335;-70
2024/04/22 08:20:30;;;;;;;11.50;2.35;;;9.10;99.90;;;;;;5381924;26;20007;-69
2024/04/22 08:22:59;;;;;;;12.35;2.30;;;9.10;99.90;;;;;;5401026;26;20000;-70
2024/04/22 08:25:26;;;;;;;16.35;2.28;;;9.20;99.90;;;;;;5383980;26;20019;-69
2024/04/22 08:27:53;;;;;;;16.55;2.53;;;9.20;99.90;;;;;;5402384;26;19996;-70
2024/04/22 08:30:20;;;;;;;9.15;2.88;;;9.30;99.90;;;;;;5406530;26;20018;-69
2024/04/22 08:32:47;;;;;;;18.77;2.20;;;9.40;99.90;;;;;;5390945;26;20076;-70
2024/04/22 08:35:14;;;;;;;18.88;2.28;;;9.50;99.90;;;;;;5394928;26;20082;-69
2024/04/22 08:37:41;;;;;;;17.52;2.33;;;9.50;99.90;;;;;;5392253;26;20020;-69
2024/04/22 08:40:09;;;;;;;12.05;2.42;;;9.60;99.90;;;;;;5395086;26;20443;-71
2024/04/22 08:42:38;;;;;;;10.98;2.45;;;9.60;99.90;;;;;;5385480;26;20028;-70
2024/04/22 08:45:06;;;;;;;14.55;2.30;;;9.70;99.90;;;;;;5406688;26;20004;-70
2024/04/22 08:47:33;;;;;;;12.77;2.15;;;9.80;99.90;;;;;;5389677;26;20004;-70
2024/04/22 08:50:00;;;;;;;9.23;2.88;;;9.70;99.90;;;;;;5390233;26;20004;-70
2024/04/22 08:52:27;;;;;;;11.65;2.55;;;9.60;99.90;;;;;;5400687;26;20345;-70
2024/04/22 08:55:06;;;;;;;14.60;1.95;;;9.30;99.90;;;;;;5377576;26;20012;-70
2024/04/22 08:57:33;;;;;;;7.13;1.50;;;9.40;99.90;;;;;;5396484;26;20029;-70
2024/04/22 09:00:00;;;;;;;20.92;2.20;;;9.30;99.90;;;;;;5390306;26;20373;-70
2024/04/22 09:02:27;;;;;;;11.15;2.40;;;9.30;99.90;;;;;;5383572;26;20012;-70
2024/04/22 09:04:54;;;;;;;15.80;2.17;;;9.30;99.90;;;;;;5378550;26;20017;-70
2024/04/22 09:07:21;;;;;;;13.77;2.00;;;9.40;99.90;;;;;;5372335;26;20348;-70
2024/04/22 09:09:48;;;;;;;6.53;1.90;;;9.50;99.90;;;;;;5393108;26;20011;-70
2024/04/22 09:12:35;;;;;;;33.70;4.95;;;9.60;99.90;;;;;;5378319;26;20007;-69
2024/04/22 09:15:03;;;;;;;11.75;2.17;;;9.80;99.90;;;;;;5380176;26;20014;-69
2024/04/22 09:17:31;;;;;;;12.85;1.83;;;9.90;99.90;;;;;;5397240;26;20000;-69
2024/04/22 09:19:58;;;;;;;11.10;1.80;;;10.00;99.90;;;;;;5397072;26;20068;-69
2024/04/22 09:22:25;;;;;;;14.45;2.10;;;10.20;99.90;;;;;;5397400;26;20001;-69
2024/04/22 09:24:52;;;;;;;6.88;1.08;;;10.30;99.90;;;;;;5390147;26;20008;-71
2024/04/22 09:27:19;;;;;;;9.73;1.35;;;10.30;99.90;;;;;;5396252;26;20016;-68
2024/04/22 09:29:46;;;;;;;10.00;2.38;;;10.20;99.90;;;;;;5389957;26;20003;-69
2024/04/22 09:32:13;;;;;;;17.23;4.93;;;10.40;99.90;;;;;;5389622;26;20003;-69
2024/04/22 09:34:41;;;;;;;8.15;1.95;;;10.40;99.90;;;;;;5365559;26;20008;-69
2024/04/22 09:37:09;;;;;;;12.60;2.20;;;10.50;99.90;;;;;;5399931;26;20043;-70
2024/04/22 09:39:40;;;;;;;7.47;1.55;;;10.60;99.90;;;;;;5391215;26;20011;-69
2024/04/22 09:42:08;;;;;;;12.57;1.85;;;10.80;99.90;;;;;;5394969;26;20468;-70
2024/04/22 09:44:35;;;;;;;15.88;2.10;;;10.80;99.90;;;;;;5396698;26;20015;-69
2024/04/22 09:47:02;;;;;;;5.55;1.20;;;10.80;99.90;;;;;;5371500;26;20000;-69
2024/04/22 09:49:30;;;;;;;11.98;3.42;;;10.90;99.90;;;;;;5394560;26;20459;-69
2024/04/22 09:51:59;;;;;;;9.02;1.65;;;11.10;99.90;;;;;;5401116;26;20085;-68
2024/04/22 09:54:26;;;;;;;6.15;1.27;;;11.20;99.90;;;;;;5392767;26;20007;-68
2024/04/22 09:56:53;;;;;;;3.95;1.08;;;11.30;99.90;;;;;;5394475;26;20592;-68
2024/04/22 09:59:20;;;;;;;5.90;1.35;;;11.00;99.90;;;;;;5399059;26;20000;-68
2024/04/22 10:01:47;;;;;;;7.95;1.10;;;11.00;99.90;;;;;;5385472;26;20487;-69
2024/04/22 10:04:14;;;;;;;11.70;1.77;;;11.10;99.90;;;;;;5378579;26;20004;-70
2024/04/22 10:06:41;;;;;;;13.90;2.63;;;11.20;99.90;;;;;;5390402;26;19995;-68
2024/04/22 10:09:15;;;;;;;5.88;1.40;;;11.30;99.90;;;;;;5407955;26;20017;-69
2024/04/22 10:11:43;;;;;;;12.32;2.38;;;11.30;99.90;;;;;;5384846;26;20021;-69
2024/04/22 10:14:13;;;;;;;7.68;1.45;;;11.30;99.90;;;;;;5376736;26;20028;-71
2024/04/22 10:16:41;;;;;;;7.20;1.77;;;11.10;99.90;;;;;;5396837;26;20040;-69
2024/04/22 10:19:08;;;;;;;9.25;1.70;;;11.00;99.90;;;;;;5378321;26;20015;-69
2024/04/22 10:21:50;;;;;;;12.57;1.77;;;10.90;99.90;;;;;;5380463;26;20081;-70
2024/04/22 10:24:37;;;;;;;8.27;1.35;;;11.00;99.90;;;;;;5374944;26;20543;-71
2024/04/22 10:27:09;;;;;;;6.63;2.85;;;11.10;99.90;;;;;;5405355;26;20525;-69
2024/04/22 10:29:40;;;;;;;13.35;1.63;;;11.20;99.90;;;;;;5385015;26;20011;-70
2024/04/22 10:32:07;;;;;;;7.40;1.40;;;11.20;99.90;;;;;;5400984;26;20022;-68
2024/04/22 10:34:38;;;;;;;8.50;1.63;;;11.20;99.90;;;;;;5400202;26;20074;-68
2024/04/22 10:37:05;;;;;;;6.60;1.52;;;11.30;99.90;;;;;;5388209;26;20008;-69
2024/04/22 10:39:33;;;;;;;5.57;1.30;;;11.30;99.90;;;;;;5399607;26;20012;-70
2024/04/22 10:42:00;;;;;;;6.47;1.33;;;11.40;99.90;;;;;;5375836;26;20016;-69
2024/04/22 10:44:27;;;;;;;6.40;1.80;;;11.40;99.90;;;;;;5404086;26;20068;-69
2024/04/22 10:46:54;;;;;;;7.18;1.40;;;11.50;99.90;;;;;;5391681;26;20028;-69
2024/04/22 10:49:29;;;;;;;7.55;1.33;;;11.60;99.90;;;;;;5398124;26;20010;-69
2024/04/22 10:51:56;;;;;;;8.43;1.83;;;11.60;99.90;;;;;;5388894;26;20015;-69
2024/04/22 10:54:23;;;;;;;4.32;1.55;;;11.70;99.90;;;;;;5386131;26;20039;-69
2024/04/22 10:56:50;;;;;;;9.60;2.05;;;11.50;99.90;;;;;;5391219;26;20126;-69
2024/04/22 10:59:17;;;;;;;8.40;1.70;;;11.30;99.90;;;;;;5396333;26;19996;-70
2024/04/22 11:01:45;;;;;;;14.48;2.28;;;11.20;99.90;;;;;;5389184;26;20015;-70
2024/04/22 11:04:12;;;;;;;10.80;2.10;;;11.20;99.90;;;;;;5396560;26;20012;-70
2024/04/22 11:06:40;;;;;;;8.65;2.45;;;11.30;99.90;;;;;;5386726;26;20962;-69
2024/04/22 11:09:07;;;;;;;6.53;2.22;;;11.40;99.90;;;;;;5399057;26;20337;-70
2024/04/22 11:11:35;;;;;;;10.75;2.33;;;11.50;99.90;;;;;;5399059;26;20030;-70
2024/04/22 11:14:03;;;;;;;10.50;2.20;;;11.60;99.90;;;;;;5399316;26;20008;-69
2024/04/22 11:16:30;;;;;;;12.00;2.17;;;11.60;99.90;;;;;;5383227;26;20020;-70
2024/04/22 11:19:04;;;;;;;11.02;2.00;;;11.60;99.90;;;;;;5382985;26;20010;-69
2024/04/22 11:21:34;;;;;;;7.65;1.50;;;11.60;99.90;;;;;;5397655;26;20020;-69
2024/04/22 11:24:01;;;;;;;11.70;2.53;;;11.50;99.90;;;;;;5391079;26;20052;-69
2024/04/22 11:26:29;;;;;;;10.40;1.83;;;11.60;99.90;;;;;;5379500;26;20006;-69
2024/04/22 11:28:58;;;;;;;9.15;1.80;;;11.60;99.90;;;;;;5390581;26;20004;-69
2024/04/22 11:31:25;;;;;;;9.38;2.08;;;11.70;99.90;;;;;;5394547;26;20012;-69
2024/04/22 11:33:54;;;;;;;6.15;1.88;;;11.70;99.90;;;;;;5394743;26;20499;-69
2024/04/22 11:36:22;;;;;;;11.25;1.88;;;11.60;99.90;;;;;;5381510;26;20171;-69
2024/04/22 11:38:49;;;;;;;11.07;2.58;;;11.50;99.90;;;;;;5384045;26;20007;-69
2024/04/22 11:41:18;;;;;;;13.02;1.77;;;11.30;99.90;;;;;;5387614;26;20008;-69
2024/04/22 11:43:45;;;;;;;15.35;2.58;;;11.40;99.90;;;;;;5389433;26;20001;-69
2024/04/22 11:46:12;;;;;;;11.85;3.78;;;11.40;99.90;;;;;;5382000;26;20059;-69
2024/04/22 11:48:39;;;;;;;14.20;2.90;;;11.40;99.90;;;;;;5390349;26;20355;-69
2024/04/22 11:51:06;;;;;;;16.60;4.90;;;11.50;99.90;;;;;;5394671;26;20455;-70
2024/04/22 11:53:33;;;;;;;5.53;2.15;;;11.60;99.90;;;;;;5369029;26;20012;-70
2024/04/22 11:56:00;;;;;;;15.48;2.08;;;11.70;99.90;;;;;;5393335;26;20012;-69
2024/04/22 11:58:29;;;;;;;11.60;2.70;;;11.70;99.90;;;;;;5385760;26;20000;-69
2024/04/22 12:00:56;;;;;;;16.23;2.70;;;11.90;99.90;;;;;;5395163;26;20854;-69
2024/04/22 12:03:23;;;;;;;19.35;2.70;;;11.90;99.90;;;;;;5356873;26;20023;-68
2024/04/22 12:05:50;;;;;;;10.50;2.25;;;12.00;99.90;;;;;;5403825;26;20035;-69
2024/04/22 12:08:17;;;;;;;22.00;3.63;;;12.00;99.90;;;;;;5390177;26;20000;-68
2024/04/22 12:10:44;;;;;;;8.20;2.63;;;12.00;99.90;;;;;;5381523;26;20004;-69
2024/04/22 12:13:11;;;;;;;12.27;2.53;;;11.70;99.90;;;;;;5370887;26;20462;-70
2024/04/22 12:15:38;;;;;;;14.38;2.20;;;11.60;99.90;;;;;;5392543;26;20003;-69
2024/04/22 12:18:05;;;;;;;9.40;1.67;;;11.60;99.90;;;;;;5405587;26;20004;-70
2024/04/22 12:20:32;;;;;;;9.38;2.17;;;11.50;99.90;;;;;;5389461;26;20003;-69
2024/04/22 12:22:59;;;;;;;11.80;1.95;;;11.50;99.90;;;;;;5393811;26;20015;-70
2024/04/22 12:25:26;;;;;;;8.23;2.08;;;11.60;99.90;;;;;;5393517;26;20016;-69
2024/04/22 12:27:53;;;;;;;11.40;2.22;;;11.40;99.90;;;;;;5381541;26;20004;-70
2024/04/22 12:30:31;;;;;;;8.10;2.13;;;11.20;99.90;;;;;;5383855;26;20022;-71
2024/04/22 12:32:58;;;;;;;18.90;1.90;;;11.00;99.90;;;;;;5378108;26;20008;-70
2024/04/22 12:35:25;;;;;;;9.25;2.22;;;10.90;99.90;;;;;;5385318;26;20017;-70
2024/04/22 12:37:52;;;;;;;14.35;3.00;;;10.80;99.90;;;;;;5389923;26;20369;-70
2024/04/22 12:40:19;;;;;;;6.43;2.50;;;10.70;99.90;;;;;;5379053;26;20016;-70
2024/04/22 12:42:46;;;;;;;10.75;3.38;;;10.60;99.90;;;;;;5375606;26;20004;-70
2024/04/22 12:45:13;;;;;;;15.20;3.65;;;10.50;99.90;;;;;;5375139;26;20028;-69
2024/04/22 12:50:45;;;;;;;17.20;2.97;;;10.60;99.90;;;;;;5393380;26;19997;-70
2024/04/22 12:53:12;;;;;;;10.35;2.85;;;10.90;99.90;;;;;;5389910;26;20003;-71
2024/04/22 12:55:39;;;;;;;13.13;2.88;;;11.00;99.90;;;;;;5380688;26;20350;-69
2024/04/22 12:58:06;;;;;;;39.20;17.08;;;11.00;99.90;;;;;;5393792;26;20011;-69
2024/04/22 13:00:33;;;;;;;14.77;4.40;;;11.00;99.90;;;;;;5379282;26;19999;-70